ENVA/TRD METAR and TAF weather

Enter ICAO airport designator
Station Type Date Time Source
ENVA METAR 2021/07/27 21:50 UTC NOAA

ENVA 272150Z 10004KT 040V170 CAVOK 21/14 Q1010 RMK WIND 670FT 15009KT


Station Type Date Time Source
ENVA Decoded METAR 2021/07/27 21:50 UTC NOAA

Trondheim / Vaernes, Norway (ENVA) 63-28N 010-56E 17M
Jul 27, 2021 - 05:50 PM EDT / 2021.07.27 2150 UTC
Wind: from the E (100 degrees) at 5 MPH (4 KT) (direction variable):0
Visibility: greater than 7 mile(s):0
Temperature: 69 F (21 C)
Dew Point: 57 F (14 C)
Relative Humidity: 64%
Pressure (altimeter): 29.83 in. Hg (1010 hPa)
ob: ENVA 272150Z 10004KT 040V170 CAVOK 21/14 Q1010 RMK WIND 670FT 15009KT
cycle: 22

Station Type Date Time Source
ENVA TAF 2021/07/27 18:57 UTC NOAA

TAF ENVA 2718/2818 16010KT CAVOK
BECMG 2718/2720 07008KT
BECMG 2808/2810 15010KT

Example: see airport list